Impacts TAF Board
For situational awareness. Not to be used for flight planning purposes.
IDs:

KCVG - Cincinnati Intl, KY, US

Issued at 1752 UTC 18 Jun 2019
Updated at 1938 UTC 18 Jun 2019
Potential Impact None Slight Moderate High
Time1852Z 18/20Z 18/21Z 18/22Z 18/23Z 19/00Z 19/01Z 19/02Z 19/03Z 19/04Z 19/05Z 19/06Z 19/07Z 19/08Z>>
Type OBS PRVL PRVL PRVL PRVL PRVL PRVL PRVL PRVL PRVL PRVL PRVL PRVL PRVL
VIS 10 >6 >6 >6 >6 >6 >6 >6 >6 5 5 5 5 5
CIG 47 35 35 35 35 35 35 35 35 35 35 35 35 35
Cover BKN OVC OVC OVC BKN BKN BKN BKN BKN BKN BKN BKN BKN BKN
FltCat VFR VFR VFR VFR VFR VFR VFR VFR VFR MVFR MVFR MVFR MVFR MVFR
WX -- -SHRA VCTS -SHRA VCTS -SHRA VCTS -- -- -- -- -- BR BR BR BR BR
WDir 220 190 190 190 200 200 200 200 200 200 200 200 200 200
WSpd 4 6 6 6 5 5 5 5 5 3 3 3 3 3
WGst -- -- -- -- -- -- -- -- -- -- -- -- -- --
Raw TAF
KCVG 181752Z 1818/1924 20005KT P6SM VCSH SCT008 OVC035
  TEMPO 1818/1819 BKN008
  FM182000 19006KT P6SM -SHRA VCTS SCT020 OVC035CB
  FM182300 20005KT P6SM BKN035
  FM190400 20003KT 5SM BR BKN035
  FM191000 22004KT 4SM BR OVC015
  FM191300 22005KT P6SM SCT015 OVC035
  FM191900 23008KT P6SM VCTS BKN035CB


Raw METAR
KCVG 181852Z 22004KT 10SM FEW017 BKN047 BKN075 BKN140 25/21 A2991 RMK AO2 SLP117 TCU DSNT N-NE MDT CU OHD T02500206
KCVG 181752Z 22007KT 10SM FEW012 BKN040 BKN060 24/20 A2993 RMK AO2 SLP125 MDT CU N-NE TCU DSNT NW 60041 T02440200 10278 20194 58009
KCVG 181724Z 20007KT 10SM SCT009 BKN034 OVC050 24/21 A2994 RMK AO2 TCU DSNT NW T02390206
KCVG 181652Z 20005KT 10SM BKN008 OVC034 23/21 A2994 RMK AO2 SLP130 VCSH NW N BINOVC T02330206

METAR Board
Radar Display
Forecast Discussion
For situational awareness. Not to be used for flight planning purposes.